Time;durP1;ratioP1;P1;durP2;ratioP2;P2;SDS_P1;SDS_P2;PMS_P1;PMS_P2;Temp;Humidity;BMP_temperature;BMP_pressure;BME280_temperature;BME280_humidity;BME280_pressure;Samples;Min_cycle;Max_cycle;Signal;HPM_P1;HPM_P2
2022/03/26 00:00:25;;;;;;;43.53;13.03;;;;;;;7.17;86.27;61573.84;5093100;28;20531;-72
2022/03/26 00:02:52;;;;;;;31.57;12.93;;;;;;;6.76;86.32;61528.13;5093030;28;20490;-72
2022/03/26 00:05:20;;;;;;;33.00;13.40;;;;;;;6.34;87.44;61478.25;5093170;28;20469;-70
2022/03/26 00:07:47;;;;;;;42.00;14.20;;;;;;;6.81;90.16;61530.91;5093070;28;21013;-72
2022/03/26 00:10:14;;;;;;;34.87;12.97;;;;;;;6.78;91.71;61527.72;5092911;28;20901;-71
2022/03/26 00:12:43;;;;;;;39.23;14.20;;;;;;;6.63;94.50;61512.25;5093042;28;20888;-73
2022/03/26 00:15:12;;;;;;;29.93;12.63;;;;;;;6.63;97.79;61514.22;5092861;28;20944;-71
2022/03/26 00:17:41;;;;;;;34.50;13.53;;;;;;;6.20;100.00;61468.38;5092607;28;20556;-72
2022/03/26 00:20:09;;;;;;;32.83;13.70;;;;;;;6.32;100.00;61481.16;5092884;28;20552;-71
2022/03/26 00:22:38;;;;;;;28.47;13.13;;;;;;;6.21;100.00;61466.91;5092899;28;20502;-70
2022/03/26 00:25:06;;;;;;;29.27;13.93;;;;;;;5.50;100.00;61387.19;5092573;28;20495;-72
2022/03/26 00:27:33;;;;;;;37.90;13.90;;;;;;;5.73;100.00;61411.19;5092781;28;20450;-71
2022/03/26 00:30:03;;;;;;;31.17;14.37;;;;;;;5.21;100.00;61363.88;5092615;28;20478;-72
2022/03/26 00:32:31;;;;;;;32.50;13.63;;;;;;;5.60;100.00;61399.84;5091221;28;20964;-73
2022/03/26 00:34:59;;;;;;;31.13;14.40;;;;;;;5.59;100.00;61409.44;5092366;28;20445;-71
2022/03/26 00:37:26;;;;;;;29.97;14.07;;;;;;;5.50;100.00;61399.81;5092428;28;20960;-72
2022/03/26 00:39:54;;;;;;;29.37;13.57;;;;;;;5.64;100.00;61404.63;5092557;28;20535;-71
2022/03/26 00:42:21;;;;;;;30.73;13.63;;;;;;;5.62;100.00;61399.97;5093194;28;20437;-72
2022/03/26 00:44:48;;;;;;;36.63;12.33;;;;;;;5.48;100.00;61395.16;5092344;28;20442;-71
2022/03/26 00:47:15;;;;;;;30.80;10.73;;;;;;;5.46;100.00;61385.47;5091003;28;20826;-71
2022/03/26 00:49:42;;;;;;;25.57;10.20;;;;;;;5.63;100.00;61406.13;5092156;28;20445;-72
2022/03/26 00:52:10;;;;;;;25.37;10.33;;;;;;;5.61;100.00;61409.03;5092381;28;20446;-73
2022/03/26 00:54:37;;;;;;;18.30;8.30;;;;;;;5.59;100.00;61401.84;5092393;28;20441;-72
2022/03/26 00:57:05;;;;;;;17.83;7.90;;;;;;;5.41;100.00;61382.66;5092069;28;20450;-72
2022/03/26 00:59:32;;;;;;;17.60;8.20;;;;;;;5.44;100.00;61385.84;5091916;28;21018;-73
2022/03/26 01:02:00;;;;;;;18.27;8.20;;;;;;;5.56;100.00;61398.66;5091267;28;20877;-72
2022/03/26 01:04:27;;;;;;;19.40;8.00;;;;;;;5.54;100.00;61396.50;5091903;28;20441;-72
2022/03/26 01:06:54;;;;;;;15.60;7.50;;;;;;;5.64;100.00;61407.16;5092210;28;20446;-72
2022/03/26 01:09:25;;;;;;;16.83;8.13;;;;;;;5.67;100.00;61410.38;5091934;28;20495;-71
2022/03/26 01:11:52;;;;;;;22.30;7.43;;;;;;;5.65;100.00;61405.72;5091946;28;20487;-72
2022/03/26 01:14:18;;;;;;;17.27;7.23;;;;;;;5.62;100.00;61405.03;5092176;28;20438;-72
2022/03/26 01:16:45;;;;;;;26.40;9.33;;;;;;;5.57;100.00;61399.72;5092234;28;20442;-72
2022/03/26 01:19:16;;;;;;;24.07;10.27;;;;;;;5.45;100.00;61391.97;5091889;28;20510;-71
2022/03/26 01:21:43;;;;;;;24.20;10.17;;;;;;;5.42;100.00;61383.19;5092630;28;20905;-70
2022/03/26 01:24:11;;;;;;;20.83;10.10;;;;;;;5.40;100.00;61381.06;5092007;28;20433;-73
2022/03/26 01:26:39;;;;;;;21.77;10.87;;;;;;;5.28;100.00;61366.28;5091958;28;20445;-71
2022/03/26 01:29:09;;;;;;;20.60;11.50;;;;;;;5.34;100.00;61375.19;5091532;28;20588;-71
2022/03/26 01:31:37;;;;;;;20.07;9.67;;;;;;;5.27;100.00;61365.22;5091684;28;20438;-72
2022/03/26 01:34:05;;;;;;;22.43;9.57;;;;;;;5.33;100.00;61379.19;5091723;28;20544;-72
2022/03/26 01:36:32;;;;;;;27.00;10.10;;;;;;;5.34;100.00;61375.19;5091951;28;20512;-73
2022/03/26 01:38:59;;;;;;;27.77;9.87;;;;;;;5.41;100.00;61382.66;5091929;28;21017;-70
2022/03/26 01:41:26;;;;;;;20.47;7.93;;;;;;;5.41;100.00;61382.66;5091839;28;20477;-72
2022/03/26 01:43:55;;;;;;;16.10;7.93;;;;;;;5.36;100.00;61377.34;5091884;28;20494;-72
2022/03/26 01:46:23;;;;;;;22.10;8.70;;;;;;;5.24;100.00;61364.53;5091997;28;20446;-72
2022/03/26 01:48:50;;;;;;;16.97;7.80;;;;;;;5.32;100.00;61373.06;5091867;28;20477;-72
2022/03/26 01:51:17;;;;;;;20.97;8.90;;;;;;;5.30;100.00;61370.94;5091967;28;20796;-71
2022/03/26 01:53:47;;;;;;;23.10;8.80;;;;;;;4.78;100.00;61313.56;5092295;28;20438;-71
2022/03/26 01:56:17;;;;;;;22.90;10.17;;;;;;;5.14;100.00;61351.38;5092800;28;20507;-72
2022/03/26 01:58:45;;;;;;;19.40;9.03;;;;;;;5.14;100.00;61356.41;5091671;28;20470;-72
2022/03/26 02:01:15;;;;;;;14.30;7.10;;;;;;;5.12;100.00;61349.22;5091343;28;20558;-73
2022/03/26 02:03:41;;;;;;;21.60;8.67;;;;;;;5.01;100.00;61342.56;5091938;28;20490;-72
2022/03/26 02:06:08;;;;;;;24.57;9.90;;;;;;;4.85;100.00;61323.00;5091434;28;20546;-71
2022/03/26 02:08:36;;;;;;;28.73;10.73;;;;;;;4.65;100.00;61302.22;5091488;28;20511;-71
2022/03/26 02:11:04;;;;;;;14.03;7.53;;;;;;;4.90;100.00;61328.88;5091435;28;20452;-71
2022/03/26 02:13:49;;;;;;;23.07;7.60;;;;;;;4.68;100.00;61307.97;5094188;28;20525;-71
2022/03/26 02:16:18;;;;;;;15.07;7.33;;;;;;;4.67;100.00;61301.31;5094478;28;20551;-73
2022/03/26 02:18:45;;;;;;;19.77;8.20;;;;;;;4.67;100.00;61303.84;5095061;28;20442;-69
2022/03/26 02:21:13;;;;;;;16.60;7.77;;;;;;;4.36;100.00;61273.34;5094969;28;21084;-71
2022/03/26 02:23:40;;;;;;;12.03;6.90;;;;;;;4.34;100.00;61268.69;5095038;28;20863;-71
2022/03/26 02:26:08;;;;;;;16.90;7.77;;;;;;;4.12;100.00;61246.38;5094774;28;20442;-72
2022/03/26 02:28:38;;;;;;;16.77;6.83;;;;;;;4.42;100.00;61282.25;5094854;28;20484;-73
2022/03/26 02:31:08;;;;;;;10.93;6.97;;;;;;;4.38;100.00;61278.00;5094967;28;20988;-72
2022/03/26 02:33:35;;;;;;;18.37;7.60;;;;;;;4.17;100.00;61253.66;5094738;28;20515;-72
2022/03/26 02:36:05;;;;;;;14.63;6.90;;;;;;;4.46;100.00;61281.47;5094847;28;20495;-71
2022/03/26 02:38:34;;;;;;;15.77;6.90;;;;;;;4.23;100.00;61260.56;5095733;28;20466;-72
2022/03/26 02:41:01;;;;;;;17.13;7.67;;;;;;;4.36;100.00;61271.38;5094701;28;20563;-71
2022/03/26 02:43:28;;;;;;;18.23;8.30;;;;;;;4.37;100.00;61271.91;5094858;28;20891;-71
2022/03/26 02:45:55;;;;;;;12.13;7.23;;;;;;;4.12;100.00;61243.31;5094918;28;20943;-71
2022/03/26 02:48:23;;;;;;;23.17;7.70;;;;;;;4.20;100.00;61257.41;5096077;28;20503;-72
2022/03/26 02:50:50;;;;;;;19.80;6.90;;;;;;;4.23;100.00;61263.09;5095855;28;20499;-72
2022/03/26 02:53:18;;;;;;;17.90;8.37;;;;;;;4.04;100.00;61237.84;5095350;28;20499;-71
2022/03/26 02:55:47;;;;;;;11.93;7.30;;;;;;;3.66;100.00;61201.91;5094346;28;21032;-71
2022/03/26 02:58:13;;;;;;;16.43;8.37;;;;;;;3.88;100.00;61220.81;5094469;28;20437;-70
2022/03/26 03:00:40;;;;;;;18.23;7.07;;;;;;;3.90;100.00;61222.94;5093895;28;21091;-72
2022/03/26 03:03:09;;;;;;;15.53;7.10;;;;;;;3.80;100.00;61211.78;5094099;28;20525;-70
2022/03/26 03:05:36;;;;;;;14.93;8.13;;;;;;;3.89;100.00;61216.84;5094163;28;20904;-71
2022/03/26 03:08:03;;;;;;;13.53;7.43;;;;;;;3.94;100.00;61226.66;5094136;28;20433;-72
2022/03/26 03:10:31;;;;;;;18.03;7.77;;;;;;;4.04;100.00;61234.78;5094025;28;20446;-71
2022/03/26 03:13:01;;;;;;;15.13;7.40;;;;;;;4.08;100.00;61239.59;5094201;28;20483;-71
2022/03/26 03:15:29;;;;;;;20.03;7.87;;;;;;;3.97;100.00;61235.44;5094235;28;20442;-72
2022/03/26 03:17:56;;;;;;;18.20;7.17;;;;;;;3.95;100.00;61227.72;5093948;28;20438;-72
2022/03/26 03:20:23;;;;;;;20.17;8.00;;;;;;;3.99;100.00;61231.97;5092727;28;20456;-71
2022/03/26 03:22:50;;;;;;;17.17;8.47;;;;;;;3.91;100.00;61220.94;5094141;28;20433;-71
2022/03/26 03:25:17;;;;;;;22.50;10.07;;;;;;;3.68;100.00;61199.56;5093044;28;20445;-71
2022/03/26 03:27:44;;;;;;;19.20;9.13;;;;;;;3.52;100.00;61185.06;5094565;28;20442;-71
2022/03/26 03:30:14;;;;;;;32.17;12.13;;;;;;;3.46;100.00;61175.63;5093717;28;20558;-71
2022/03/26 03:32:40;;;;;;;22.77;9.33;;;;;;;3.50;100.00;61180.41;5094285;28;20871;-69
2022/03/26 03:35:08;;;;;;;22.67;9.60;;;;;;;3.39;100.00;61168.69;5092408;28;20789;-72
2022/03/26 03:37:37;;;;;;;28.70;10.00;;;;;;;2.90;100.00;61116.63;5093761;28;20521;-72
2022/03/26 03:40:07;;;;;;;22.87;10.00;;;;;;;2.93;100.00;61119.78;5093601;28;20871;-71
2022/03/26 03:42:34;;;;;;;37.87;10.87;;;;;;;2.55;100.00;61079.97;5093720;28;20477;-71
2022/03/26 03:45:01;;;;;;;29.23;10.90;;;;;;;2.56;100.00;61079.03;5093493;28;20438;-70
2022/03/26 03:47:29;;;;;;;18.97;10.83;;;;;;;2.48;100.00;61075.56;5093284;28;20445;-70
2022/03/26 03:49:56;;;;;;;31.00;11.50;;;;;;;2.50;100.00;61072.13;5093418;28;20437;-71
2022/03/26 03:52:23;;;;;;;27.63;11.27;;;;;;;2.25;100.00;61051.13;5093239;28;20438;-71
2022/03/26 03:54:50;;;;;;;29.73;11.87;;;;;;;2.32;100.00;61061.06;5093145;28;20434;-71
2022/03/26 03:57:17;;;;;;;21.23;10.60;;;;;;;1.63;100.00;60992.84;5093206;28;20507;-72
2022/03/26 03:59:47;;;;;;;29.60;10.73;;;;;;;2.26;100.00;61049.69;5093451;28;20438;-70
2022/03/26 04:02:16;;;;;;;25.87;10.90;;;;;;;2.26;100.00;61047.16;5093140;28;20481;-71
2022/03/26 04:04:44;;;;;;;19.17;10.80;;;;;;;2.46;100.00;61068.41;5093257;28;20450;-71
2022/03/26 04:07:12;;;;;;;22.50;10.23;;;;;;;2.56;100.00;61084.06;5093374;28;20494;-71
2022/03/26 04:09:39;;;;;;;32.10;10.93;;;;;;;2.63;100.00;61085.41;5092549;28;20449;-70
2022/03/26 04:12:07;;;;;;;25.30;10.70;;;;;;;2.74;100.00;61097.63;5093105;28;20445;-71
2022/03/26 04:14:35;;;;;;;27.40;10.97;;;;;;;2.60;100.00;61084.75;5092387;28;21023;-70
2022/03/26 04:17:02;;;;;;;25.83;11.57;;;;;;;2.64;100.00;61089.50;5092947;28;20512;-71
2022/03/26 04:19:30;;;;;;;22.90;10.40;;;;;;;2.75;100.00;61106.22;5092867;28;20797;-72
2022/03/26 04:21:58;;;;;;;25.07;11.27;;;;;;;2.84;100.00;61110.25;5092696;28;20476;-71
2022/03/26 04:24:25;;;;;;;33.23;11.10;;;;;;;2.69;100.00;61091.78;5092542;28;20444;-71
2022/03/26 04:26:53;;;;;;;23.03;11.60;;;;;;;2.77;100.00;61107.81;5092582;28;20454;-72
2022/03/26 04:29:21;;;;;;;25.00;11.00;;;;;;;2.42;100.00;61071.16;5092426;28;20526;-72
2022/03/26 04:31:47;;;;;;;30.20;12.80;;;;;;;2.82;100.00;61110.63;5092719;28;20440;-71
2022/03/26 04:34:15;;;;;;;29.83;12.63;;;;;;;2.73;100.00;61098.53;5092459;28;20465;-71
2022/03/26 04:36:42;;;;;;;30.60;12.47;;;;;;;2.90;100.00;61114.09;5092592;28;20450;-72
2022/03/26 04:39:10;;;;;;;30.77;11.87;;;;;;;2.95;100.00;61121.91;5093019;28;20511;-71
2022/03/26 04:41:36;;;;;;;22.37;11.67;;;;;;;3.00;100.00;61124.72;5092230;28;20991;-71
2022/03/26 04:44:03;;;;;;;19.43;9.97;;;;;;;3.06;100.00;61131.09;5092511;28;20433;-72
2022/03/26 04:46:30;;;;;;;26.67;11.57;;;;;;;3.08;100.00;61135.75;5092295;28;20445;-73
2022/03/26 04:48:58;;;;;;;29.47;11.10;;;;;;;3.12;100.00;61142.53;5092232;28;20487;-71
2022/03/26 04:51:25;;;;;;;27.37;11.07;;;;;;;3.06;100.00;61134.13;5091981;28;20560;-72
2022/03/26 04:53:52;;;;;;;34.93;11.30;;;;;;;3.11;100.00;61138.94;5092025;28;20433;-71
2022/03/26 04:56:22;;;;;;;39.60;12.23;;;;;;;3.18;100.00;61146.38;5092513;28;20434;-72
2022/03/26 04:58:49;;;;;;;26.70;11.23;;;;;;;3.17;100.00;61150.88;5092533;28;20434;-71
2022/03/26 05:01:18;;;;;;;35.63;12.27;;;;;;;3.18;100.00;61146.38;5092061;28;20480;-72
2022/03/26 05:03:45;;;;;;;35.83;12.67;;;;;;;3.15;100.00;61140.66;5091986;28;20928;-74
2022/03/26 05:06:12;;;;;;;32.07;12.67;;;;;;;3.07;100.00;61135.22;5091857;28;20449;-73
2022/03/26 05:08:40;;;;;;;37.70;13.57;;;;;;;3.23;100.00;61154.19;5092308;28;20495;-71
2022/03/26 05:11:06;;;;;;;38.97;14.27;;;;;;;3.33;100.00;61160.34;5092197;28;20503;-71
2022/03/26 05:13:35;;;;;;;43.93;14.47;;;;;;;3.51;100.00;61180.91;5092912;28;20438;-72
2022/03/26 05:16:03;;;;;;;41.57;15.20;;;;;;;3.50;100.00;61180.41;5092173;28;20498;-73
2022/03/26 05:18:30;;;;;;;34.33;15.40;;;;;;;3.59;100.00;61189.97;5092331;28;20599;-72
2022/03/26 05:20:59;;;;;;;35.57;16.30;;;;;;;3.59;100.00;61192.50;5091888;28;20446;-71
2022/03/26 05:23:26;;;;;;;28.77;14.20;;;;;;;3.78;100.00;61209.66;5091132;28;20433;-72
2022/03/26 05:25:53;;;;;;;38.60;14.77;;;;;;;4.01;100.00;61234.66;5091887;28;20445;-71
2022/03/26 05:28:21;;;;;;;32.57;14.87;;;;;;;3.94;100.00;61222.16;5091905;28;20465;-72
2022/03/26 05:30:50;;;;;;;33.77;14.50;;;;;;;4.09;100.00;61243.16;5092045;28;20434;-72
2022/03/26 05:33:17;;;;;;;36.97;13.63;;;;;;;3.98;100.00;61228.94;5092142;28;20434;-72
2022/03/26 05:35:44;;;;;;;33.13;13.30;;;;;;;4.06;100.00;61239.97;5091970;28;20468;-71
2022/03/26 05:38:11;;;;;;;29.60;12.43;;;;;;;4.09;100.00;61245.69;5091895;28;20498;-70
2022/03/26 05:40:38;;;;;;;26.30;10.53;;;;;;;4.24;100.00;61259.13;5092478;28;20444;-72
2022/03/26 05:43:06;;;;;;;27.27;11.07;;;;;;;4.44;100.00;61276.81;5091723;28;20478;-71
2022/03/26 05:45:34;;;;;;;28.57;11.20;;;;;;;4.40;100.00;61275.09;5091626;28;20904;-72
2022/03/26 05:48:05;;;;;;;26.33;11.27;;;;;;;4.40;100.00;61275.09;5093874;28;20429;-71
2022/03/26 05:50:34;;;;;;;22.53;10.20;;;;;;;4.47;100.00;61287.59;5095605;28;20947;-71
2022/03/26 05:53:01;;;;;;;23.67;11.00;;;;;;;4.66;100.00;61305.28;5095495;28;20939;-72
2022/03/26 05:55:28;;;;;;;27.97;11.10;;;;;;;4.69;100.00;61303.44;5095572;28;20559;-71
2022/03/26 05:57:55;;;;;;;33.17;10.20;;;;;;;4.87;100.00;61325.13;5096088;28;20656;-72
2022/03/26 06:00:22;;;;;;;26.03;10.23;;;;;;;5.12;100.00;61354.28;5095554;28;20434;-71
2022/03/26 06:02:49;;;;;;;27.60;9.67;;;;;;;5.21;100.00;61361.34;5095205;28;20517;-70
2022/03/26 06:05:18;;;;;;;28.83;10.13;;;;;;;5.64;100.00;61407.16;5095431;28;20465;-73
2022/03/26 06:07:47;;;;;;;23.07;10.10;;;;;;;5.85;100.00;61432.13;5095475;28;20437;-71
2022/03/26 06:10:16;;;;;;;29.57;10.37;;;;;;;5.98;100.00;61443.44;5095359;28;20453;-72
2022/03/26 06:12:43;;;;;;;22.23;11.33;;;;;;;5.66;100.00;61411.28;5096396;28;20452;-72
2022/03/26 06:15:12;;;;;;;25.17;11.07;;;;;;;6.75;100.00;61524.50;5095431;28;20547;-71
2022/03/26 06:17:40;;;;;;;25.17;10.50;;;;;;;6.99;100.00;61549.56;5095111;28;20452;-72
2022/03/26 06:20:10;;;;;;;16.83;9.30;;;;;;;7.23;100.00;61575.19;5095272;28;20487;-71
2022/03/26 06:22:39;;;;;;;15.10;8.40;;;;;;;7.44;100.00;61598.16;5094890;28;21054;-73
2022/03/26 06:25:07;;;;;;;26.23;9.27;;;;;;;7.45;100.00;61594.16;5094767;28;20444;-73
2022/03/26 06:27:35;;;;;;;16.53;8.20;;;;;;;7.63;100.00;61618.44;5095047;28;20970;-72
2022/03/26 06:30:03;;;;;;;17.60;7.63;;;;;;;7.81;100.00;61641.69;5095020;28;20549;-71
2022/03/26 06:32:32;;;;;;;15.93;8.33;;;;;;;8.15;100.00;61672.94;5094985;28;20451;-71
2022/03/26 06:35:01;;;;;;;17.20;8.20;;;;;;;8.31;100.00;61692.59;5095539;28;20824;-71
2022/03/26 06:37:28;;;;;;;24.30;9.20;;;;;;;8.69;100.00;61725.63;5095237;28;20433;-73
2022/03/26 06:39:57;;;;;;;20.30;9.33;;;;;;;8.98;96.79;61761.69;5094789;28;20434;-71
2022/03/26 06:42:24;;;;;;;25.03;9.77;;;;;;;8.79;90.54;61741.38;5096692;28;20227;-71
2022/03/26 06:44:52;;;;;;;30.93;9.70;;;;;;;8.61;91.83;61721.59;5096330;28;20433;-72
2022/03/26 06:47:19;;;;;;;16.63;10.00;;;;;;;8.61;91.69;61716.53;5094632;28;20445;-73
2022/03/26 06:49:46;;;;;;;20.40;9.57;;;;;;;9.18;92.63;61780.53;5094571;28;20438;-71
2022/03/26 06:52:14;;;;;;;21.63;10.00;;;;;;;9.63;88.93;61830.16;5095321;28;20438;-71
2022/03/26 06:54:41;;;;;;;19.20;9.23;;;;;;;9.86;86.53;61854.78;5094765;28;20207;-72
2022/03/26 06:57:11;;;;;;;20.80;9.10;;;;;;;9.80;83.20;61848.38;5094642;28;20199;-73
2022/03/26 06:59:38;;;;;;;28.90;9.90;;;;;;;9.87;82.42;61855.84;5094820;28;20195;-72
2022/03/26 07:02:07;;;;;;;21.57;9.57;;;;;;;10.27;79.20;61891.06;5094317;28;20243;-71
2022/03/26 07:04:34;;;;;;;23.80;9.37;;;;;;;10.27;76.36;61901.25;5094255;28;20561;-73
2022/03/26 07:07:03;;;;;;;22.87;10.50;;;;;;;9.98;75.43;61868.16;5094183;28;20203;-72
2022/03/26 07:09:30;;;;;;;20.80;11.90;;;;;;;10.36;76.08;61908.34;5094105;28;20693;-73
2022/03/26 07:11:59;;;;;;;23.93;10.23;;;;;;;10.83;77.19;61956.16;5093994;28;20452;-71
2022/03/26 07:14:28;;;;;;;24.13;11.27;;;;;;;11.14;72.84;61991.38;5093825;28;20199;-72
2022/03/26 07:16:56;;;;;;;19.77;10.17;;;;;;;11.17;73.94;61994.06;5093906;28;20199;-72
2022/03/26 07:22:04;;;;;;;24.90;10.67;;;;;;;10.42;69.47;61909.69;5093922;28;20223;-70
2022/03/26 07:24:32;;;;;;;21.03;10.87;;;;;;;11.31;68.84;62006.53;5093719;28;20571;-73
2022/03/26 07:26:59;;;;;;;29.27;11.73;;;;;;;11.53;68.13;62038.28;5093857;28;20195;-70
2022/03/26 07:29:28;;;;;;;21.90;11.90;;;;;;;11.75;65.79;62054.25;5092094;28;20238;-71
2022/03/26 07:31:57;;;;;;;26.30;12.23;;;;;;;11.74;64.75;62052.66;5093518;28;20310;-73
2022/03/26 07:34:26;;;;;;;24.67;11.20;;;;;;;11.88;66.30;62073.31;5093892;28;20200;-71
2022/03/26 07:36:55;;;;;;;24.80;11.20;;;;;;;12.13;64.07;62099.06;5092360;28;20573;-72
2022/03/26 07:39:22;;;;;;;25.90;11.93;;;;;;;12.49;62.27;62135.69;5093548;28;20700;-72
2022/03/26 07:41:49;;;;;;;24.13;11.87;;;;;;;12.58;60.57;62142.78;5093432;28;20206;-72
2022/03/26 07:44:17;;;;;;;30.80;12.57;;;;;;;12.25;59.10;62109.91;5092895;28;20674;-72
2022/03/26 07:46:46;;;;;;;36.77;13.80;;;;;;;12.32;59.77;62114.31;5093267;28;20267;-72
2022/03/26 07:49:14;;;;;;;33.47;13.13;;;;;;;12.09;60.02;62092.75;5093240;28;20207;-70
2022/03/26 07:51:42;;;;;;;31.77;12.40;;;;;;;11.84;59.17;62066.47;5093419;28;20298;-71
2022/03/26 07:54:09;;;;;;;36.27;12.57;;;;;;;11.72;59.64;62051.03;5093251;28;20658;-72
2022/03/26 07:59:20;;;;;;;31.63;12.03;;;;;;;12.37;58.00;62122.81;5093360;28;20670;-72
2022/03/26 08:01:53;;;;;;;25.67;11.60;;;;;;;12.44;56.34;62127.75;5093909;28;20210;-72
2022/03/26 08:04:20;;;;;;;29.20;11.07;;;;;;;12.21;55.80;62105.09;5093302;28;20582;-73
2022/03/26 08:06:47;;;;;;;27.10;11.83;;;;;;;12.20;55.91;62104.53;5093232;28;20757;-72
2022/03/26 08:09:16;;;;;;;26.70;11.93;;;;;;;12.34;55.27;62113.91;5092779;28;20192;-72
2022/03/26 08:11:45;;;;;;;29.57;11.87;;;;;;;12.79;54.60;62164.25;5091265;28;20300;-74
2022/03/26 08:14:13;;;;;;;26.63;13.27;;;;;;;13.35;53.02;62226.97;5092880;28;20201;-74
2022/03/26 08:16:41;;;;;;;34.03;12.27;;;;;;;13.58;50.69;62252.19;5092981;28;20199;-73
2022/03/26 08:19:09;;;;;;;23.70;12.07;;;;;;;13.25;49.53;62219.31;5092814;28;20202;-72
2022/03/26 08:21:37;;;;;;;25.63;12.07;;;;;;;13.58;49.09;62249.13;5095688;28;20196;-73
2022/03/26 08:24:05;;;;;;;20.33;11.40;;;;;;;13.91;48.77;62287.13;5092829;28;20319;-72
2022/03/26 08:26:32;;;;;;;20.23;11.00;;;;;;;13.96;47.48;62291.97;5092438;28;20202;-71
2022/03/26 08:29:01;;;;;;;23.77;12.27;;;;;;;13.88;47.77;62286.47;5092273;28;20232;-72
2022/03/26 08:31:31;;;;;;;19.10;11.10;;;;;;;14.19;48.22;62317.22;5092350;28;20307;-71
2022/03/26 08:33:59;;;;;;;24.13;10.93;;;;;;;14.66;45.29;62367.25;5092443;28;20203;-71
2022/03/26 08:36:28;;;;;;;20.77;10.67;;;;;;;14.74;43.79;62372.75;5092236;28;20199;-72
2022/03/26 08:38:55;;;;;;;16.57;9.83;;;;;;;14.61;43.15;62363.91;5092347;28;20203;-72
2022/03/26 08:41:24;;;;;;;19.90;10.23;;;;;;;14.80;43.59;62381.78;5092471;28;20278;-72
2022/03/26 08:43:52;;;;;;;27.47;10.63;;;;;;;14.67;43.95;62367.81;5092470;28;20231;-71
2022/03/26 08:46:21;;;;;;;23.60;10.43;;;;;;;14.68;43.35;62366.31;5092314;28;20279;-71
2022/03/26 08:48:50;;;;;;;27.40;11.00;;;;;;;15.09;43.93;62407.84;5092148;28;20191;-72
2022/03/26 08:51:18;;;;;;;25.33;11.20;;;;;;;15.16;43.29;62421.06;5091985;28;20203;-72
2022/03/26 08:53:48;;;;;;;23.80;12.10;;;;;;;14.98;42.52;62396.00;5092078;28;20274;-72
2022/03/26 08:56:16;;;;;;;28.50;11.50;;;;;;;14.62;43.57;62368.09;5092153;28;20572;-71
2022/03/26 08:58:43;;;;;;;19.97;10.53;;;;;;;14.70;43.55;62371.56;5092168;28;20199;-72
2022/03/26 09:01:11;;;;;;;25.53;10.83;;;;;;;15.13;42.84;62412.69;5091161;28;20286;-71
2022/03/26 09:03:40;;;;;;;23.57;11.20;;;;;;;15.36;41.93;62439.47;5092055;28;20246;-72
2022/03/26 09:06:08;;;;;;;28.17;11.33;;;;;;;15.81;42.10;62489.97;5092054;28;20223;-73
2022/03/26 09:08:36;;;;;;;26.70;10.60;;;;;;;16.14;39.75;62524.97;5092509;28;20221;-74
2022/03/26 09:11:05;;;;;;;20.07;9.83;;;;;;;16.57;39.22;62571.31;5092825;28;20249;-74
2022/03/26 09:13:33;;;;;;;19.87;8.77;;;;;;;16.65;37.27;62577.38;5092265;28;20578;-72
2022/03/26 09:16:00;;;;;;;14.57;8.37;;;;;;;16.47;36.30;62561.06;5092359;28;20284;-72
2022/03/26 09:18:27;;;;;;;22.00;9.93;;;;;;;16.84;37.79;62600.41;5091795;28;20665;-71
2022/03/26 09:20:54;;;;;;;18.80;9.20;;;;;;;17.06;37.32;62621.56;5091823;28;20191;-72
2022/03/26 09:23:21;;;;;;;20.87;9.50;;;;;;;17.15;37.68;62631.25;5094150;28;20223;-71
2022/03/26 09:25:48;;;;;;;16.13;9.63;;;;;;;17.09;37.80;62626.81;5095883;28;20196;-71
2022/03/26 09:28:18;;;;;;;16.63;9.47;;;;;;;17.24;38.40;62643.00;5096043;28;20191;-72
2022/03/26 09:30:45;;;;;;;13.40;9.07;;;;;;;17.37;37.88;62657.00;5096441;28;20200;-72
2022/03/26 09:33:12;;;;;;;14.87;9.13;;;;;;;17.36;37.82;62656.47;5095946;28;20203;-70
2022/03/26 09:35:38;;;;;;;19.10;10.57;;;;;;;17.59;37.73;62678.72;5095989;28;20203;-71
2022/03/26 09:38:06;;;;;;;15.40;9.37;;;;;;;17.62;36.67;62681.97;5095761;28;20198;-71
2022/03/26 09:40:33;;;;;;;22.47;10.90;;;;;;;18.23;36.98;62746.69;5095856;28;20199;-70
2022/03/26 09:43:00;;;;;;;23.53;11.33;;;;;;;18.24;36.64;62750.34;5095597;28;20716;-72
2022/03/26 09:45:29;;;;;;;19.40;11.33;;;;;;;18.53;36.87;62781.69;5095740;28;20199;-72
2022/03/26 09:47:56;;;;;;;23.70;10.93;;;;;;;18.86;36.43;62814.72;5095481;28;20348;-71
2022/03/26 09:50:23;;;;;;;17.53;10.50;;;;;;;19.29;36.24;62863.22;5096102;28;20203;-73
2022/03/26 09:52:51;;;;;;;20.97;10.70;;;;;;;19.18;36.51;62846.69;5096065;28;20203;-71
2022/03/26 09:55:21;;;;;;;14.93;9.50;;;;;;;19.50;36.34;62885.91;5095474;28;20583;-72
2022/03/26 09:57:49;;;;;;;20.77;11.07;;;;;;;19.70;36.42;62907.53;5095670;28;20198;-72
2022/03/26 10:00:16;;;;;;;24.93;11.47;;;;;;;19.64;35.96;62898.44;5095828;28;20206;-72
2022/03/26 10:02:46;;;;;;;20.43;10.87;;;;;;;19.51;36.63;62886.47;5095028;28;20227;-72
2022/03/26 10:05:18;;;;;;;19.47;11.13;;;;;;;19.56;36.41;62886.69;5095217;28;20215;-72
2022/03/26 10:07:49;;;;;;;15.60;10.13;;;;;;;19.61;36.73;62897.25;5095524;28;20196;-73
2022/03/26 10:10:25;;;;;;;25.73;10.73;;;;;;;19.52;37.10;62884.97;5096261;28;20322;-72
2022/03/26 10:12:52;;;;;;;22.70;10.90;;;;;;;19.28;36.82;62862.13;5095741;28;20587;-73
2022/03/26 10:15:19;;;;;;;21.33;10.43;;;;;;;18.52;37.17;62783.72;5095615;28;20192;-71
2022/03/26 10:17:49;;;;;;;23.20;11.27;;;;;;;18.35;37.76;62760.19;5094034;28;20214;-71
2022/03/26 10:20:16;;;;;;;21.80;10.50;;;;;;;18.95;37.43;62821.31;5095193;28;20238;-71
2022/03/26 10:22:45;;;;;;;16.73;10.33;;;;;;;18.35;36.81;62762.75;5094878;28;20245;-71
2022/03/26 10:25:14;;;;;;;15.17;9.10;;;;;;;18.56;37.69;62779.75;5094684;28;20719;-72
2022/03/26 10:27:43;;;;;;;18.30;9.20;;;;;;;19.09;37.05;62841.59;5094636;28;20379;-72
2022/03/26 10:30:13;;;;;;;17.10;8.73;;;;;;;19.29;36.74;62858.59;5094390;28;20255;-73
2022/03/26 10:32:41;;;;;;;15.43;8.43;;;;;;;19.49;36.49;62884.84;5094301;28;20617;-72
2022/03/26 10:35:22;;;;;;;13.87;8.43;;;;;;;19.62;36.58;62895.78;5094122;28;20195;-71
2022/03/26 10:37:56;;;;;;;17.33;9.63;;;;;;;18.87;36.27;62817.84;5094302;28;20200;-73
2022/03/26 10:40:30;;;;;;;14.47;9.70;;;;;;;18.83;37.17;62810.94;5094338;28;20248;-73
2022/03/26 10:43:03;;;;;;;16.80;10.03;;;;;;;18.46;37.11;62774.13;5094516;28;20239;-74
2022/03/26 10:45:32;;;;;;;17.13;9.60;;;;;;;19.46;37.45;62876.41;5094710;28;20199;-71
2022/03/26 10:48:01;;;;;;;16.73;8.97;;;;;;;19.84;35.61;62922.66;5094568;28;20196;-72
2022/03/26 10:50:35;;;;;;;19.77;8.97;;;;;;;20.18;35.11;62958.88;5094782;28;20726;-71
2022/03/26 10:53:06;;;;;;;14.50;8.67;;;;;;;20.30;34.97;62977.06;5094567;28;20249;-71
2022/03/26 10:55:34;;;;;;;11.93;8.50;;;;;;;20.65;34.95;63007.13;5094254;28;20207;-73
2022/03/26 10:58:03;;;;;;;13.20;7.60;;;;;;;19.51;34.87;62881.28;5094089;28;20203;-73
2022/03/26 11:00:30;;;;;;;16.17;8.27;;;;;;;20.28;35.02;62964.53;5094685;28;20192;-72
2022/03/26 11:02:57;;;;;;;16.83;8.63;;;;;;;20.39;34.93;62986.78;5094189;28;20249;-75
2022/03/26 11:05:24;;;;;;;12.00;7.97;;;;;;;20.25;35.11;62963.88;5094245;28;20281;-71
2022/03/26 11:07:53;;;;;;;16.93;7.83;;;;;;;20.76;34.93;63021.09;5094297;28;20191;-74
2022/03/26 11:10:25;;;;;;;13.97;7.67;;;;;;;21.04;33.55;63056.59;5093781;28;20283;-73
2022/03/26 11:12:53;;;;;;;13.50;7.10;;;;;;;20.96;33.90;63045.31;5093934;28;20701;-74
2022/03/26 11:15:23;;;;;;;12.10;6.57;;;;;;;20.95;34.37;63042.19;5094289;28;20640;-74
2022/03/26 11:18:03;;;;;;;16.30;6.63;;;;;;;20.31;34.52;62970.38;5093795;28;20272;-73
2022/03/26 11:20:49;;;;;;;12.03;6.87;;;;;;;20.96;34.59;63048.44;5094536;28;20256;-71
2022/03/26 11:23:33;;;;;;;12.47;6.90;;;;;;;20.70;34.08;63009.97;5094258;28;20296;-73
2022/03/26 11:26:22;;;;;;;11.87;6.50;;;;;;;20.95;34.43;63042.19;5093873;28;20263;-73
2022/03/26 11:29:09;;;;;;;11.60;7.23;;;;;;;21.43;34.11;63093.06;5093660;28;20239;-72
2022/03/26 11:31:43;;;;;;;12.20;7.53;;;;;;;21.36;33.83;63085.47;5093321;28;20619;-72